Time;durP1;ratioP1;P1;durP2;ratioP2;P2;SDS_P1;SDS_P2;PMS_P1;PMS_P2;Temp;Humidity;BMP_temperature;BMP_pressure;BME280_temperature;BME280_humidity;BME280_pressure;Samples;Min_cycle;Max_cycle;Signal;HPM_P1;HPM_P2
2022/07/26 00:02:25;;;;;;;10.10;4.47;;;;;;;;;;5037780;28;20045;-83
2022/07/26 00:04:51;;;;;;;6.68;4.20;;;;;;;;;;5019648;28;20409;-82
2022/07/26 00:07:16;;;;;;;8.60;4.30;;;;;;;;;;5037249;28;20041;-83
2022/07/26 00:09:42;;;;;;;6.57;4.10;;;;;;;;;;5036492;28;20125;-83
2022/07/26 00:12:09;;;;;;;8.10;4.25;;;;;;;;;;5020058;28;20124;-83
2022/07/26 00:14:35;;;;;;;6.45;4.00;;;;;;;;;;5002714;28;20068;-83
2022/07/26 00:17:01;;;;;;;5.72;3.88;;;;;;;;;;5037712;28;20034;-82
2022/07/26 00:19:27;;;;;;;8.20;4.25;;;;;;;;;;5037711;28;20045;-83
2022/07/26 00:22:32;;;;;;;6.93;3.90;;;;;;;;;;5037869;28;20041;-82
2022/07/26 00:24:38;;;;;;;8.60;3.97;;;;;;;;;;5036429;28;20029;-83
2022/07/26 00:27:04;;;;;;;5.53;3.97;;;;;;;;;;5036301;28;20036;-82
2022/07/26 00:29:30;;;;;;;5.07;3.67;;;;;;;;;;5018949;28;20116;-82
2022/07/26 00:31:55;;;;;;;7.03;3.50;;;;;;;;;;5037746;28;20123;-82
2022/07/26 00:34:21;;;;;;;8.30;3.80;;;;;;;;;;5036359;28;20406;-82
2022/07/26 00:36:46;;;;;;;9.90;4.50;;;;;;;;;;5037699;28;20112;-82
2022/07/26 00:39:12;;;;;;;7.82;3.97;;;;;;;;;;5036924;28;20391;-82
2022/07/26 00:41:37;;;;;;;6.82;3.80;;;;;;;;;;5037505;28;20033;-83
2022/07/26 00:44:03;;;;;;;6.35;3.90;;;;;;;;;;5037024;28;20101;-82
2022/07/26 00:46:28;;;;;;;6.85;3.90;;;;;;;;;;5036575;28;20559;-82
2022/07/26 00:48:54;;;;;;;9.13;3.63;;;;;;;;;;5035596;28;20029;-83
2022/07/26 00:51:20;;;;;;;8.02;4.00;;;;;;;;;;5036586;28;20029;-83
2022/07/26 00:53:47;;;;;;;5.97;3.70;;;;;;;;;;5037112;28;20056;-82
2022/07/26 00:56:14;;;;;;;5.75;3.83;;;;;;;;;;5036429;28;20494;-82
2022/07/26 00:58:41;;;;;;;6.32;3.90;;;;;;;;;;5037000;28;20564;-83
2022/07/26 01:01:07;;;;;;;11.85;4.03;;;;;;;;;;5019471;28;20056;-82
2022/07/26 01:03:33;;;;;;;6.45;4.25;;;;;;;;;;5036158;28;20038;-82
2022/07/26 01:05:58;;;;;;;8.18;4.30;;;;;;;;;;5036264;28;20076;-82
2022/07/26 01:08:24;;;;;;;7.43;4.38;;;;;;;;;;5017979;28;20041;-82
2022/07/26 01:10:50;;;;;;;6.90;4.05;;;;;;;;;;5037051;28;20044;-82
2022/07/26 01:13:22;;;;;;;7.65;4.10;;;;;;;;;;5036335;28;20490;-82
2022/07/26 01:15:48;;;;;;;8.05;4.20;;;;;;;;;;5036230;28;20509;-82
2022/07/26 01:18:14;;;;;;;7.18;3.78;;;;;;;;;;5018772;28;20033;-82
2022/07/26 01:20:41;;;;;;;7.75;4.13;;;;;;;;;;5036461;28;20029;-83
2022/07/26 01:23:07;;;;;;;11.98;4.60;;;;;;;;;;5035674;28;20045;-82
2022/07/26 01:25:36;;;;;;;6.88;4.18;;;;;;;;;;5017961;28;20042;-82
2022/07/26 01:28:02;;;;;;;7.13;4.20;;;;;;;;;;5036262;28;20038;-82
2022/07/26 01:30:28;;;;;;;11.43;4.32;;;;;;;;;;5035956;28;20038;-82
2022/07/26 01:32:53;;;;;;;9.45;4.35;;;;;;;;;;5035921;28;20040;-82
2022/07/26 01:35:19;;;;;;;6.82;4.28;;;;;;;;;;5034337;28;20039;-82
2022/07/26 01:37:44;;;;;;;6.70;3.97;;;;;;;;;;5018681;28;20121;-82
2022/07/26 01:40:10;;;;;;;7.85;4.28;;;;;;;;;;5035877;28;20478;-82
2022/07/26 01:42:39;;;;;;;7.10;3.60;;;;;;;;;;5036180;28;20509;-82
2022/07/26 01:45:09;;;;;;;10.68;4.10;;;;;;;;;;5035446;28;20022;-82
2022/07/26 01:47:34;;;;;;;7.88;3.97;;;;;;;;;;5035773;28;20624;-83
2022/07/26 01:50:01;;;;;;;7.55;3.90;;;;;;;;;;5035761;28;20061;-82
2022/07/26 01:52:27;;;;;;;5.13;3.72;;;;;;;;;;5035686;28;20112;-83
2022/07/26 01:54:52;;;;;;;7.68;3.50;;;;;;;;;;5035078;28;20112;-83
2022/07/26 01:57:18;;;;;;;5.15;3.50;;;;;;;;;;5035672;28;20034;-83
2022/07/26 01:59:43;;;;;;;9.45;3.58;;;;;;;;;;5035102;28;20630;-83
2022/07/26 02:02:08;;;;;;;8.02;3.70;;;;;;;;;;5034659;28;20486;-83
2022/07/26 02:07:18;;;;;;;6.70;3.47;;;;;;;;;;5035880;28;20034;-83
2022/07/26 02:09:44;;;;;;;6.47;3.70;;;;;;;;;;5034106;28;20565;-83
2022/07/26 02:12:10;;;;;;;5.68;3.42;;;;;;;;;;5018351;28;20033;-83
2022/07/26 02:14:35;;;;;;;7.75;3.25;;;;;;;;;;5017294;28;20052;-83
2022/07/26 02:17:01;;;;;;;4.80;3.50;;;;;;;;;;5035363;28;20494;-83
2022/07/26 02:19:27;;;;;;;4.45;3.25;;;;;;;;;;5017396;28;20040;-83
2022/07/26 02:21:53;;;;;;;4.65;3.30;;;;;;;;;;5036792;28;20037;-83
2022/07/26 02:24:19;;;;;;;6.70;3.28;;;;;;;;;;5034759;28;20040;-83
2022/07/26 02:26:45;;;;;;;3.85;2.70;;;;;;;;;;5035457;28;20037;-84
2022/07/26 02:29:10;;;;;;;4.28;3.00;;;;;;;;;;5017468;28;20064;-83
2022/07/26 02:31:36;;;;;;;5.55;2.67;;;;;;;;;;5035236;28;20021;-83
2022/07/26 02:34:01;;;;;;;3.38;2.40;;;;;;;;;;5017222;28;20036;-84
2022/07/26 02:36:26;;;;;;;4.40;2.40;;;;;;;;;;5017048;28;20112;-83
2022/07/26 02:38:52;;;;;;;3.60;2.70;;;;;;;;;;5035041;28;20033;-83
2022/07/26 02:41:18;;;;;;;4.43;2.40;;;;;;;;;;5035481;28;20402;-83
2022/07/26 02:43:43;;;;;;;3.67;2.00;;;;;;;;;;5035349;28;20037;-83
2022/07/26 02:46:09;;;;;;;4.50;2.42;;;;;;;;;;5035047;28;20040;-83
2022/07/26 02:48:35;;;;;;;4.70;2.50;;;;;;;;;;5035620;28;20036;-83
2022/07/26 02:51:00;;;;;;;4.35;2.65;;;;;;;;;;5035382;28;20040;-83
2022/07/26 02:53:26;;;;;;;5.50;2.60;;;;;;;;;;5016914;28;20038;-83
2022/07/26 02:55:52;;;;;;;3.67;2.33;;;;;;;;;;5017180;28;20037;-83
2022/07/26 02:58:20;;;;;;;4.50;2.28;;;;;;;;;;5034928;28;20046;-83
2022/07/26 03:00:45;;;;;;;3.03;1.90;;;;;;;;;;5035145;28;20033;-83
2022/07/26 03:03:12;;;;;;;4.93;2.25;;;;;;;;;;5035117;28;20036;-82
2022/07/26 03:05:39;;;;;;;3.97;2.50;;;;;;;;;;5034429;28;20401;-83
2022/07/26 03:08:05;;;;;;;3.72;2.10;;;;;;;;;;5016611;28;20046;-83
2022/07/26 03:10:32;;;;;;;5.25;2.17;;;;;;;;;;5035288;28;20107;-82
2022/07/26 03:12:58;;;;;;;6.38;2.30;;;;;;;;;;5034759;28;20045;-82
2022/07/26 03:15:23;;;;;;;3.42;2.10;;;;;;;;;;5037785;28;20026;-82
2022/07/26 03:17:49;;;;;;;2.33;1.90;;;;;;;;;;5038893;28;20041;-82
2022/07/26 03:20:14;;;;;;;3.78;2.20;;;;;;;;;;5038698;28;20040;-82
2022/07/26 03:22:40;;;;;;;4.00;2.10;;;;;;;;;;5038456;28;20048;-83
2022/07/26 03:25:06;;;;;;;3.45;2.10;;;;;;;;;;5020973;28;20026;-82
2022/07/26 03:27:32;;;;;;;5.40;2.08;;;;;;;;;;5038436;28;20029;-82
2022/07/26 03:29:58;;;;;;;3.67;2.25;;;;;;;;;;5038162;28;20033;-82
2022/07/26 03:32:23;;;;;;;4.65;2.40;;;;;;;;;;5038702;28;20116;-82
2022/07/26 03:34:49;;;;;;;5.22;2.60;;;;;;;;;;5037978;28;20071;-82
2022/07/26 03:37:15;;;;;;;3.78;2.38;;;;;;;;;;5038897;28;20514;-82
2022/07/26 03:39:40;;;;;;;3.47;2.65;;;;;;;;;;5038265;28;20406;-82
2022/07/26 03:42:06;;;;;;;4.47;2.70;;;;;;;;;;5038710;28;20040;-83
2022/07/26 03:44:31;;;;;;;5.03;2.50;;;;;;;;;;5038195;28;20029;-82
2022/07/26 03:46:57;;;;;;;5.75;2.88;;;;;;;;;;5020206;28;20037;-81
2022/07/26 03:49:23;;;;;;;3.88;2.55;;;;;;;;;;5038458;28;20037;-82
2022/07/26 03:51:48;;;;;;;4.53;2.95;;;;;;;;;;5038003;28;20091;-81
2022/07/26 03:54:14;;;;;;;4.60;2.50;;;;;;;;;;5037750;28;20040;-82
2022/07/26 03:56:39;;;;;;;4.95;2.70;;;;;;;;;;5038186;28;20113;-82
2022/07/26 03:59:09;;;;;;;4.65;2.95;;;;;;;;;;5038825;28;20041;-82
2022/07/26 04:01:40;;;;;;;4.55;2.50;;;;;;;;;;5038416;28;20112;-82
2022/07/26 04:04:08;;;;;;;4.03;2.50;;;;;;;;;;5019419;28;20036;-82
2022/07/26 04:06:34;;;;;;;7.40;2.72;;;;;;;;;;5037671;28;20037;-82
2022/07/26 04:08:59;;;;;;;6.75;2.60;;;;;;;;;;5019112;28;20029;-82
2022/07/26 04:11:25;;;;;;;5.05;2.95;;;;;;;;;;5038250;28;20047;-82
2022/07/26 04:13:50;;;;;;;3.60;2.72;;;;;;;;;;5038021;28;20037;-82
2022/07/26 04:16:16;;;;;;;4.82;2.60;;;;;;;;;;5037288;28;20033;-82
2022/07/26 04:18:41;;;;;;;2.65;2.08;;;;;;;;;;5037715;28;20037;-82
2022/07/26 04:21:07;;;;;;;4.57;2.42;;;;;;;;;;5037827;28;20037;-82
2022/07/26 04:23:32;;;;;;;3.38;2.13;;;;;;;;;;5037870;28;20095;-82
2022/07/26 04:25:58;;;;;;;4.55;2.22;;;;;;;;;;5018607;28;20041;-82
2022/07/26 04:28:27;;;;;;;3.78;2.25;;;;;;;;;;5053721;28;20017;-82
2022/07/26 04:30:56;;;;;;;2.83;2.20;;;;;;;;;;5058043;28;20085;-82
2022/07/26 04:33:22;;;;;;;2.70;2.10;;;;;;;;;;5054429;28;20033;-82
2022/07/26 04:35:47;;;;;;;4.65;2.20;;;;;;;;;;5056662;28;20109;-82
2022/07/26 04:38:13;;;;;;;5.43;2.40;;;;;;;;;;5035366;28;20068;-82
2022/07/26 04:40:38;;;;;;;2.97;2.17;;;;;;;;;;5055276;28;20495;-82
2022/07/26 04:43:04;;;;;;;5.00;2.47;;;;;;;;;;5050009;28;20045;-83
2022/07/26 04:45:30;;;;;;;3.67;2.20;;;;;;;;;;5019102;28;20029;-83
2022/07/26 04:47:56;;;;;;;3.08;2.10;;;;;;;;;;5037332;28;20061;-83
2022/07/26 04:50:22;;;;;;;4.47;2.20;;;;;;;;;;5037829;28;20076;-83
2022/07/26 04:52:49;;;;;;;5.97;2.75;;;;;;;;;;5037219;28;20401;-82
2022/07/26 04:55:16;;;;;;;4.00;2.40;;;;;;;;;;5036198;28;20083;-82
2022/07/26 04:57:42;;;;;;;4.80;2.20;;;;;;;;;;5036256;28;20040;-82
2022/07/26 05:00:11;;;;;;;4.63;2.30;;;;;;;;;;5019544;28;20033;-82
2022/07/26 05:02:37;;;;;;;3.05;2.28;;;;;;;;;;5019288;28;20034;-83
2022/07/26 05:05:04;;;;;;;3.38;2.42;;;;;;;;;;5036470;28;20037;-83
2022/07/26 05:07:44;;;;;;;3.53;2.22;;;;;;;;;;5036713;28;20034;-82
2022/07/26 05:10:10;;;;;;;3.15;2.03;;;;;;;;;;5035607;28;20025;-83
2022/07/26 05:12:36;;;;;;;5.93;2.20;;;;;;;;;;5035716;28;20041;-83
2022/07/26 05:15:03;;;;;;;4.18;2.50;;;;;;;;;;5017916;28;20040;-83
2022/07/26 05:17:28;;;;;;;4.47;2.38;;;;;;;;;;5036947;28;20045;-82
2022/07/26 05:19:54;;;;;;;5.18;2.20;;;;;;;;;;5035858;28;20045;-83
2022/07/26 05:22:19;;;;;;;4.72;2.60;;;;;;;;;;5035764;28;20112;-82
2022/07/26 05:24:44;;;;;;;3.22;2.17;;;;;;;;;;5035167;28;20041;-83
2022/07/26 05:27:10;;;;;;;4.57;2.30;;;;;;;;;;5034244;28;20095;-83
2022/07/26 05:29:35;;;;;;;4.05;2.00;;;;;;;;;;5035697;28;20038;-84
2022/07/26 05:32:01;;;;;;;3.92;2.30;;;;;;;;;;5035482;28;20033;-83
2022/07/26 05:34:27;;;;;;;3.55;2.30;;;;;;;;;;5034826;28;20033;-83
2022/07/26 05:36:52;;;;;;;3.22;2.08;;;;;;;;;;5034016;28;20041;-83
2022/07/26 05:39:18;;;;;;;4.75;2.95;;;;;;;;;;5035311;28;20025;-81
2022/07/26 05:41:43;;;;;;;3.45;2.30;;;;;;;;;;5035333;28;20490;-83
2022/07/26 05:44:09;;;;;;;3.92;2.40;;;;;;;;;;5033408;28;20171;-83
2022/07/26 05:46:38;;;;;;;7.05;2.50;;;;;;;;;;5018453;28;20079;-83
2022/07/26 05:49:04;;;;;;;3.85;2.50;;;;;;;;;;5035796;28;20043;-84
2022/07/26 05:51:32;;;;;;;5.05;2.55;;;;;;;;;;5035703;28;20524;-83
2022/07/26 05:53:58;;;;;;;5.28;2.30;;;;;;;;;;5016838;28;20033;-81
2022/07/26 05:56:24;;;;;;;3.15;2.20;;;;;;;;;;5035601;28;20041;-83
2022/07/26 05:58:49;;;;;;;5.22;2.20;;;;;;;;;;5017809;28;20501;-83
2022/07/26 06:01:15;;;;;;;3.17;2.50;;;;;;;;;;5035413;28;20033;-83
2022/07/26 06:03:40;;;;;;;5.80;2.45;;;;;;;;;;5017888;28;20151;-83
2022/07/26 06:06:06;;;;;;;4.18;2.25;;;;;;;;;;5034922;28;20026;-83
2022/07/26 06:08:32;;;;;;;3.17;2.17;;;;;;;;;;5034478;28;20034;-83
2022/07/26 06:10:58;;;;;;;6.03;2.28;;;;;;;;;;5034498;28;20025;-82
2022/07/26 06:13:23;;;;;;;4.00;2.47;;;;;;;;;;5017757;28;20091;-83
2022/07/26 06:15:49;;;;;;;3.88;2.38;;;;;;;;;;5016961;28;20375;-82
2022/07/26 06:18:15;;;;;;;4.18;2.50;;;;;;;;;;5035312;28;20037;-84
2022/07/26 06:20:42;;;;;;;4.50;2.30;;;;;;;;;;5034055;28;20080;-83
2022/07/26 06:23:08;;;;;;;4.28;2.38;;;;;;;;;;5035463;28;20038;-83
2022/07/26 06:25:34;;;;;;;4.13;2.30;;;;;;;;;;5038553;28;20051;-86
2022/07/26 06:28:07;;;;;;;4.30;2.47;;;;;;;;;;5021357;28;20041;-87
2022/07/26 06:30:33;;;;;;;4.70;2.40;;;;;;;;;;5040134;28;20033;-86
2022/07/26 06:32:59;;;;;;;6.05;2.33;;;;;;;;;;5024834;28;20037;-85
2022/07/26 06:35:29;;;;;;;4.05;2.50;;;;;;;;;;5044967;28;20149;-86
2022/07/26 06:37:56;;;;;;;3.65;2.30;;;;;;;;;;5027448;28;20037;-86
2022/07/26 06:40:21;;;;;;;3.45;2.40;;;;;;;;;;5045476;28;20064;-85
2022/07/26 06:42:47;;;;;;;4.10;2.42;;;;;;;;;;5026906;28;20494;-85
2022/07/26 06:45:12;;;;;;;3.60;2.30;;;;;;;;;;5041899;28;20425;-83
2022/07/26 06:47:38;;;;;;;3.53;2.35;;;;;;;;;;5042983;28;20033;-85
2022/07/26 06:50:04;;;;;;;3.97;2.47;;;;;;;;;;5025348;28;20076;-82
2022/07/26 06:52:31;;;;;;;3.70;2.60;;;;;;;;;;5040770;28;20025;-83
2022/07/26 06:54:58;;;;;;;4.72;2.60;;;;;;;;;;5021666;28;20038;-82
2022/07/26 06:57:24;;;;;;;4.45;2.50;;;;;;;;;;5043104;28;20544;-82
2022/07/26 06:59:50;;;;;;;3.63;2.60;;;;;;;;;;5043178;28;20041;-83
2022/07/26 07:02:16;;;;;;;5.32;2.50;;;;;;;;;;5043105;28;20462;-83
2022/07/26 07:04:41;;;;;;;3.60;2.50;;;;;;;;;;5041677;28;20029;-82
2022/07/26 07:07:07;;;;;;;3.53;2.38;;;;;;;;;;5021380;28;20037;-86
2022/07/26 07:09:34;;;;;;;3.78;2.50;;;;;;;;;;5042636;28;20057;-83
2022/07/26 07:12:01;;;;;;;3.88;2.15;;;;;;;;;;5041940;28;20064;-85
2022/07/26 07:14:27;;;;;;;4.57;2.35;;;;;;;;;;5022854;28;20037;-86
2022/07/26 07:16:53;;;;;;;3.38;2.35;;;;;;;;;;5024122;28;20041;-86
2022/07/26 07:19:19;;;;;;;3.88;2.42;;;;;;;;;;5042413;28;20033;-86
2022/07/26 07:21:45;;;;;;;6.53;2.30;;;;;;;;;;5024842;28;20079;-86
2022/07/26 07:24:10;;;;;;;3.45;2.17;;;;;;;;;;5040863;28;20038;-85
2022/07/26 07:26:36;;;;;;;5.30;2.38;;;;;;;;;;5025371;28;20045;-86
2022/07/26 07:29:01;;;;;;;4.40;2.30;;;;;;;;;;5042229;28;20541;-85
2022/07/26 07:31:27;;;;;;;2.90;2.10;;;;;;;;;;5042470;28;20029;-85
2022/07/26 07:33:52;;;;;;;4.57;2.22;;;;;;;;;;5042727;28;20034;-86
2022/07/26 07:36:17;;;;;;;5.60;2.20;;;;;;;;;;5042752;28;20030;-85
2022/07/26 07:38:44;;;;;;;3.70;2.35;;;;;;;;;;5043950;28;20092;-85
2022/07/26 07:41:09;;;;;;;3.47;2.30;;;;;;;;;;5024656;28;20059;-85
2022/07/26 07:43:35;;;;;;;5.20;2.40;;;;;;;;;;5025844;28;20490;-86
2022/07/26 07:46:00;;;;;;;2.63;2.00;;;;;;;;;;5042071;28;20022;-85
2022/07/26 07:48:26;;;;;;;4.55;2.00;;;;;;;;;;5025135;28;20478;-84
2022/07/26 07:50:51;;;;;;;2.45;1.83;;;;;;;;;;5043233;28;20029;-84
2022/07/26 07:53:17;;;;;;;5.18;2.13;;;;;;;;;;5026354;28;20042;-85
2022/07/26 07:55:42;;;;;;;4.95;2.08;;;;;;;;;;5042302;28;20372;-85
2022/07/26 07:58:08;;;;;;;3.92;2.15;;;;;;;;;;5042967;28;20056;-85
2022/07/26 08:00:33;;;;;;;4.25;2.03;;;;;;;;;;5043881;28;20037;-85
2022/07/26 08:02:59;;;;;;;6.50;2.33;;;;;;;;;;5029084;28;20033;-85
2022/07/26 08:05:24;;;;;;;5.75;2.30;;;;;;;;;;5046088;28;20535;-84
2022/07/26 08:07:49;;;;;;;4.85;1.98;;;;;;;;;;5046526;28;20044;-85
2022/07/26 08:10:15;;;;;;;3.15;1.88;;;;;;;;;;5044425;28;20038;-86
2022/07/26 08:12:42;;;;;;;3.97;2.03;;;;;;;;;;5045682;28;20042;-85
2022/07/26 08:15:08;;;;;;;3.75;2.20;;;;;;;;;;5027315;28;20041;-84
2022/07/26 08:17:34;;;;;;;2.92;2.00;;;;;;;;;;5045391;28;20029;-85
2022/07/26 08:19:59;;;;;;;4.10;2.15;;;;;;;;;;5028894;28;20044;-85
2022/07/26 08:22:25;;;;;;;2.47;2.00;;;;;;;;;;5046631;28;20037;-83
2022/07/26 08:24:51;;;;;;;2.83;1.90;;;;;;;;;;5044857;28;20502;-85
2022/07/26 08:27:17;;;;;;;4.18;2.28;;;;;;;;;;5028175;28;20025;-85
2022/07/26 08:29:42;;;;;;;3.60;2.08;;;;;;;;;;5045991;28;20041;-85
2022/07/26 08:32:07;;;;;;;3.13;2.00;;;;;;;;;;5027569;28;20068;-85
2022/07/26 08:34:33;;;;;;;2.38;1.88;;;;;;;;;;5044717;28;20030;-85
2022/07/26 08:36:59;;;;;;;4.07;1.83;;;;;;;;;;5045092;28;20435;-85
2022/07/26 08:39:24;;;;;;;7.35;2.08;;;;;;;;;;5044091;28;20033;-84
2022/07/26 08:41:50;;;;;;;5.43;2.33;;;;;;;;;;5026285;28;20116;-85
2022/07/26 08:44:16;;;;;;;3.60;2.28;;;;;;;;;;5043987;28;20039;-85
2022/07/26 08:46:41;;;;;;;6.07;2.30;;;;;;;;;;5044174;28;20063;-84
2022/07/26 08:49:09;;;;;;;3.67;2.33;;;;;;;;;;5043861;28;20042;-85
2022/07/26 08:51:41;;;;;;;4.00;2.50;;;;;;;;;;5044139;28;20048;-85
2022/07/26 08:54:08;;;;;;;4.10;2.80;;;;;;;;;;5043012;28;20056;-87
2022/07/26 08:56:36;;;;;;;3.78;2.45;;;;;;;;;;5043251;28;20029;-85
2022/07/26 08:59:13;;;;;;;2.85;2.22;;;;;;;;;;5025608;28;20041;-86
2022/07/26 09:02:11;;;;;;;5.85;3.00;;;;;;;;;;5043278;28;20071;-87
2022/07/26 09:04:43;;;;;;;5.18;2.78;;;;;;;;;;5029062;28;20571;-86
2022/07/26 09:07:14;;;;;;;5.32;2.80;;;;;;;;;;5042305;28;20038;-85
2022/07/26 09:10:03;;;;;;;5.15;3.13;;;;;;;;;;5039836;28;20113;-84
2022/07/26 09:12:30;;;;;;;4.30;3.20;;;;;;;;;;5022146;28;20064;-84
2022/07/26 09:14:57;;;;;;;5.80;3.28;;;;;;;;;;5039719;28;20029;-84
2022/07/26 09:17:35;;;;;;;5.65;3.20;;;;;;;;;;5041965;28;20034;-84
2022/07/26 09:20:08;;;;;;;6.00;3.13;;;;;;;;;;5040276;28;20071;-84
2022/07/26 09:22:34;;;;;;;;;;;;;;;;;;5037696;28;20036;-82
2022/07/26 09:25:00;;;;;;;6.13;3.67;;;;;;;;;;5037869;28;19913;-85
2022/07/26 09:27:35;;;;;;;4.85;2.95;;;;;;;;;;5038079;28;20036;-84
2022/07/26 09:30:06;;;;;;;3.47;2.83;;;;;;;;;;5043964;28;20163;-84
2022/07/26 09:32:32;;;;;;;4.57;2.45;;;;;;;;;;5036378;28;20075;-85
2022/07/26 09:35:20;;;;;;;6.50;2.80;;;;;;;;;;5036882;28;20056;-84
2022/07/26 09:37:47;;;;;;;4.90;2.65;;;;;;;;;;5017490;28;20038;-85
2022/07/26 09:40:14;;;;;;;6.15;2.88;;;;;;;;;;5020155;28;20039;-84
2022/07/26 09:42:56;;;;;;;4.78;2.33;;;;;;;;;;5035552;28;20044;-84
2022/07/26 09:45:22;;;;;;;3.65;1.90;;;;;;;;;;5037716;28;20030;-83
2022/07/26 09:47:48;;;;;;;5.05;2.00;;;;;;;;;;5040938;28;20106;-83
2022/07/26 09:50:25;;;;;;;5.07;2.00;;;;;;;;;;5025481;28;20087;-84
2022/07/26 09:52:58;;;;;;;4.00;2.35;;;;;;;;;;5043502;28;20033;-83
2022/07/26 09:55:23;;;;;;;;;;;;;;;;;;5043766;28;20044;-84
2022/07/26 09:57:54;;;;;;;5.05;2.20;;;;;;;;;;5043441;28;19948;-86
2022/07/26 10:00:20;;;;;;;2.70;2.10;;;;;;;;;;5048516;28;20034;-87
2022/07/26 10:02:46;;;;;;;3.45;1.90;;;;;;;;;;5013669;28;20041;-84
2022/07/26 10:05:11;;;;;;;3.00;2.03;;;;;;;;;;5029925;28;20038;-84
2022/07/26 10:07:38;;;;;;;4.03;1.95;;;;;;;;;;5045059;28;20029;-84
2022/07/26 10:10:10;;;;;;;3.10;1.95;;;;;;;;;;5040832;28;20059;-84
2022/07/26 10:12:35;;;;;;;3.47;2.40;;;;;;;;;;5023926;28;20033;-86
2022/07/26 10:15:01;;;;;;;3.40;2.50;;;;;;;;;;5013838;28;20071;-84
2022/07/26 10:17:27;;;;;;;5.10;2.80;;;;;;;;;;5048619;28;20044;-83
2022/07/26 10:20:00;;;;;;;4.00;2.40;;;;;;;;;;5036732;28;20073;-84
2022/07/26 10:22:32;;;;;;;4.93;2.70;;;;;;;;;;5053468;28;20041;-84
2022/07/26 10:25:16;;;;;;;3.13;2.40;;;;;;;;;;5034296;28;20018;-84
2022/07/26 10:27:49;;;;;;;5.47;3.03;;;;;;;;;;5023464;28;20045;-84
2022/07/26 10:30:18;;;;;;;5.72;2.80;;;;;;;;;;5037263;28;20036;-83
2022/07/26 10:32:55;;;;;;;4.88;2.95;;;;;;;;;;5041693;28;20029;-85
2022/07/26 10:35:33;;;;;;;8.23;2.65;;;;;;;;;;5046927;28;20033;-85
2022/07/26 10:38:04;;;;;;;4.75;2.65;;;;;;;;;;5032114;28;20037;-87
2022/07/26 10:40:30;;;;;;;5.55;2.97;;;;;;;;;;5045414;28;20414;-89
2022/07/26 10:43:09;;;;;;;3.30;2.50;;;;;;;;;;5041341;28;20639;-86
2022/07/26 10:45:36;;;;;;;2.65;2.10;;;;;;;;;;5040288;28;20067;-86
2022/07/26 10:48:23;;;;;;;4.55;1.95;;;;;;;;;;5040515;28;20053;-85
2022/07/26 10:50:51;;;;;;;3.25;1.83;;;;;;;;;;5020704;28;20060;-85
2022/07/26 10:53:22;;;;;;;2.55;1.70;;;;;;;;;;5020370;28;20037;-87
2022/07/26 10:55:56;;;;;;;2.15;1.80;;;;;;;;;;5033374;28;20034;-86
2022/07/26 10:58:24;;;;;;;3.85;1.80;;;;;;;;;;5035545;28;20597;-84
2022/07/26 11:01:01;;;;;;;3.85;2.00;;;;;;;;;;5036146;28;20061;-85
2022/07/26 11:03:41;;;;;;;4.25;1.90;;;;;;;;;;5038518;28;20037;-86
2022/07/26 11:06:15;;;;;;;4.20;2.15;;;;;;;;;;5036492;28;20529;-89
2022/07/26 11:08:42;;;;;;;3.13;1.95;;;;;;;;;;5017872;28;20063;-85
2022/07/26 11:11:08;;;;;;;5.60;2.10;;;;;;;;;;5019228;28;20055;-86
2022/07/26 11:13:35;;;;;;;3.15;2.10;;;;;;;;;;5036175;28;20033;-85
2022/07/26 11:16:03;;;;;;;2.60;2.00;;;;;;;;;;5037318;28;20502;-86
2022/07/26 11:18:31;;;;;;;5.13;2.10;;;;;;;;;;5003471;28;20041;-86
2022/07/26 11:21:14;;;;;;;2.20;1.70;;;;;;;;;;5037764;28;20042;-86
2022/07/26 11:23:42;;;;;;;2.80;2.10;;;;;;;;;;5037779;28;20056;-84
2022/07/26 11:26:09;;;;;;;3.80;2.00;;;;;;;;;;5019219;28;20048;-84
2022/07/26 11:28:53;;;;;;;2.92;1.88;;;;;;;;;;5036037;28;20033;-84
2022/07/26 11:31:40;;;;;;;3.72;2.00;;;;;;;;;;5018979;28;20029;-84
2022/07/26 11:34:08;;;;;;;3.03;1.80;;;;;;;;;;5018162;28;20060;-82
2022/07/26 11:36:37;;;;;;;3.05;2.15;;;;;;;;;;5022144;28;20034;-85
2022/07/26 11:39:09;;;;;;;2.70;1.95;;;;;;;;;;5039861;28;20041;-84
2022/07/26 11:41:35;;;;;;;4.85;2.13;;;;;;;;;;5040114;28;20026;-85
2022/07/26 11:44:02;;;;;;;4.72;1.80;;;;;;;;;;5021712;28;20029;-85
2022/07/26 11:46:39;;;;;;;3.15;2.00;;;;;;;;;;5039913;28;20029;-84
2022/07/26 11:49:15;;;;;;;2.67;1.88;;;;;;;;;;5022025;28;20108;-84
2022/07/26 11:51:54;;;;;;;2.13;1.88;;;;;;;;;;5040502;28;20536;-84
2022/07/26 11:54:42;;;;;;;3.20;2.00;;;;;;;;;;5039708;28;20207;-84
2022/07/26 11:57:08;;;;;;;3.05;2.10;;;;;;;;;;5040405;28;20038;-85
2022/07/26 11:59:35;;;;;;;3.65;2.00;;;;;;;;;;5039947;28;20034;-85
2022/07/26 12:02:04;;;;;;;4.57;2.00;;;;;;;;;;5040463;28;20033;-84
2022/07/26 12:04:43;;;;;;;5.07;1.80;;;;;;;;;;5039507;28;20121;-84
2022/07/26 12:07:11;;;;;;;2.35;1.92;;;;;;;;;;5022904;28;20021;-84
2022/07/26 12:09:39;;;;;;;2.75;2.00;;;;;;;;;;5020152;28;20034;-84
2022/07/26 12:12:08;;;;;;;4.50;2.03;;;;;;;;;;5041149;28;20041;-85
2022/07/26 12:14:38;;;;;;;2.67;1.77;;;;;;;;;;5022441;28;20041;-85
2022/07/26 12:17:16;;;;;;;2.45;1.80;;;;;;;;;;5039403;28;20029;-85
2022/07/26 12:19:43;;;;;;;3.65;1.90;;;;;;;;;;5021024;28;20108;-85
2022/07/26 12:22:14;;;;;;;3.33;2.10;;;;;;;;;;5039246;28;20045;-86
2022/07/26 12:24:45;;;;;;;3.47;1.63;;;;;;;;;;5004001;28;20041;-85
2022/07/26 12:27:18;;;;;;;2.97;1.52;;;;;;;;;;5038543;28;20501;-85
2022/07/26 12:29:52;;;;;;;2.20;1.67;;;;;;;;;;5023530;28;20112;-85
2022/07/26 12:32:29;;;;;;;2.38;1.60;;;;;;;;;;5021674;28;20041;-85
2022/07/26 12:35:03;;;;;;;1.98;1.63;;;;;;;;;;5020944;28;20049;-85
2022/07/26 12:37:31;;;;;;;3.15;2.00;;;;;;;;;;5038311;28;20406;-85
2022/07/26 12:40:04;;;;;;;3.17;1.77;;;;;;;;;;5021002;28;20025;-85
2022/07/26 12:42:32;;;;;;;2.90;1.80;;;;;;;;;;5038459;28;20064;-84
2022/07/26 12:44:59;;;;;;;3.17;1.70;;;;;;;;;;5020481;28;20480;-85
2022/07/26 12:47:25;;;;;;;2.13;1.40;;;;;;;;;;5019299;28;20025;-86
2022/07/26 12:49:52;;;;;;;3.33;1.50;;;;;;;;;;5037217;28;20040;-84
2022/07/26 12:52:20;;;;;;;3.10;1.52;;;;;;;;;;5020283;28;20028;-85
2022/07/26 12:54:47;;;;;;;3.50;1.40;;;;;;;;;;5035651;28;20171;-85
2022/07/26 12:57:13;;;;;;;2.42;1.77;;;;;;;;;;5038405;28;20379;-85
2022/07/26 12:59:40;;;;;;;2.25;1.30;;;;;;;;;;5022705;28;20398;-83
2022/07/26 13:02:06;;;;;;;1.95;1.33;;;;;;;;;;5021206;28;20056;-83
2022/07/26 13:04:32;;;;;;;2.85;1.50;;;;;;;;;;5004288;28;20028;-84
2022/07/26 13:06:58;;;;;;;1.50;1.35;;;;;;;;;;5039837;28;20029;-83
2022/07/26 13:09:23;;;;;;;8.25;2.03;;;;;;;;;;5037445;28;20025;-83
2022/07/26 13:11:49;;;;;;;1.85;1.35;;;;;;;;;;5038892;28;20029;-83
2022/07/26 13:14:14;;;;;;;2.28;1.50;;;;;;;;;;5038003;28;20021;-83
2022/07/26 13:16:40;;;;;;;3.15;1.48;;;;;;;;;;5039064;28;20121;-83
2022/07/26 13:19:05;;;;;;;1.92;1.40;;;;;;;;;;5038892;28;20121;-83
2022/07/26 13:21:31;;;;;;;2.28;1.30;;;;;;;;;;5038848;28;20029;-83
2022/07/26 13:23:57;;;;;;;2.92;1.50;;;;;;;;;;5037873;28;20030;-83
2022/07/26 13:26:22;;;;;;;3.75;1.30;;;;;;;;;;5020804;28;20034;-84
2022/07/26 13:28:48;;;;;;;2.10;1.50;;;;;;;;;;5039840;28;20204;-83
2022/07/26 13:31:14;;;;;;;1.92;1.30;;;;;;;;;;5038606;28;20037;-82
2022/07/26 13:33:41;;;;;;;3.47;1.17;;;;;;;;;;5038341;28;20033;-82
2022/07/26 13:36:07;;;;;;;4.15;1.48;;;;;;;;;;5038327;28;20033;-83
2022/07/26 13:38:33;;;;;;;2.80;1.35;;;;;;;;;;5023012;28;20531;-83
2022/07/26 13:41:03;;;;;;;3.65;1.50;;;;;;;;;;5041145;28;20033;-83
2022/07/26 13:43:30;;;;;;;1.70;1.30;;;;;;;;;;5037973;28;20052;-90
2022/07/26 13:45:56;;;;;;;1.65;1.30;;;;;;;;;;5018376;28;20049;-84
2022/07/26 13:48:22;;;;;;;1.60;1.00;;;;;;;;;;5020994;28;20038;-84
2022/07/26 13:50:48;;;;;;;2.95;1.40;;;;;;;;;;5039388;28;20037;-85
2022/07/26 13:53:15;;;;;;;1.48;1.10;;;;;;;;;;5035707;28;20037;-86
2022/07/26 13:55:41;;;;;;;3.03;1.40;;;;;;;;;;5035105;28;20048;-87
2022/07/26 13:58:06;;;;;;;1.10;1.00;;;;;;;;;;5017186;28;20033;-85
2022/07/26 14:00:32;;;;;;;2.28;1.10;;;;;;;;;;5034913;28;20094;-85
2022/07/26 14:02:58;;;;;;;1.80;1.10;;;;;;;;;;5035335;28;20068;-86
2022/07/26 14:05:26;;;;;;;1.67;1.30;;;;;;;;;;5034854;28;20555;-86
2022/07/26 14:07:52;;;;;;;2.80;1.20;;;;;;;;;;5018214;28;20493;-85
2022/07/26 14:10:19;;;;;;;2.67;1.30;;;;;;;;;;5016418;28;20118;-86
2022/07/26 14:12:44;;;;;;;3.40;1.40;;;;;;;;;;5034755;28;20033;-86
2022/07/26 14:15:10;;;;;;;1.75;1.17;;;;;;;;;;5016323;28;20406;-86
2022/07/26 14:17:36;;;;;;;2.22;1.40;;;;;;;;;;5034691;28;20041;-85
2022/07/26 14:20:02;;;;;;;3.17;1.10;;;;;;;;;;5035045;28;20045;-83
2022/07/26 14:22:28;;;;;;;3.67;1.20;;;;;;;;;;5039231;28;20124;-83
2022/07/26 14:24:54;;;;;;;2.88;1.10;;;;;;;;;;5038631;28;20065;-83
2022/07/26 14:27:19;;;;;;;1.35;1.13;;;;;;;;;;5038561;28;20112;-83
2022/07/26 14:29:45;;;;;;;4.18;1.10;;;;;;;;;;5038393;28;20493;-83
2022/07/26 14:32:12;;;;;;;1.20;1.02;;;;;;;;;;5038577;28;20441;-83
2022/07/26 14:34:38;;;;;;;1.50;1.20;;;;;;;;;;5037463;28;20052;-82
2022/07/26 14:37:04;;;;;;;3.08;1.40;;;;;;;;;;5038240;28;20111;-83
2022/07/26 14:39:29;;;;;;;2.08;1.13;;;;;;;;;;5021178;28;20410;-82
2022/07/26 14:41:55;;;;;;;2.15;1.30;;;;;;;;;;5039334;28;20061;-83
2022/07/26 14:44:21;;;;;;;2.45;1.20;;;;;;;;;;5043304;28;20041;-82
2022/07/26 14:46:46;;;;;;;2.75;1.30;;;;;;;;;;5043294;28;20052;-83
2022/07/26 14:49:12;;;;;;;4.03;1.20;;;;;;;;;;5026197;28;20040;-85